createdAt,value
2022-12-23T00:00:57.604Z,23.83
2022-12-23T00:03:25.796Z,24.73
2022-12-23T00:05:53.931Z,24.70
2022-12-23T00:08:22.444Z,23.10
2022-12-23T00:10:51.305Z,22.33
2022-12-23T00:13:37.398Z,24.20
2022-12-23T00:16:08.719Z,22.67
2022-12-23T00:18:37.355Z,25.77
2022-12-23T00:21:09.089Z,25.50
2022-12-23T00:23:39.182Z,22.87
2022-12-23T00:26:07.644Z,22.07
2022-12-23T00:28:35.401Z,21.70
2022-12-23T00:31:06.832Z,23.23
2022-12-23T00:33:36.382Z,23.33
2022-12-23T00:36:13.087Z,23.40
2022-12-23T00:38:58.651Z,23.10
2022-12-23T00:41:44.022Z,23.73
2022-12-23T00:44:12.129Z,25.07
2022-12-23T00:46:41.297Z,24.70
2022-12-23T00:49:26.621Z,25.50
2022-12-23T00:51:54.325Z,24.17
2022-12-23T00:54:22.088Z,24.57
2022-12-23T00:56:49.907Z,23.73
2022-12-23T00:59:17.634Z,24.93
2022-12-23T01:02:04.464Z,23.50
2022-12-23T01:04:50.079Z,24.23
2022-12-23T01:07:17.946Z,24.30
2022-12-23T01:09:45.966Z,23.53
2022-12-23T01:12:15.080Z,20.47
2022-12-23T01:14:42.931Z,23.17
2022-12-23T01:17:12.416Z,22.43
2022-12-23T01:19:40.683Z,21.93
2022-12-23T01:22:08.400Z,25.73
2022-12-23T01:24:36.160Z,26.43
2022-12-23T01:27:03.976Z,25.93
2022-12-23T01:29:31.871Z,26.53
2022-12-23T01:31:59.678Z,26.57
2022-12-23T01:34:36.112Z,25.03
2022-12-23T01:37:05.789Z,27.37
2022-12-23T01:39:33.862Z,27.00
2022-12-23T01:42:19.169Z,28.70
2022-12-23T01:44:57.590Z,28.80
2022-12-23T01:47:31.747Z,27.03
2022-12-23T01:50:07.218Z,29.03
2022-12-23T01:52:39.941Z,28.70
2022-12-23T01:55:09.057Z,29.20
2022-12-23T01:57:40.303Z,28.37
2022-12-23T02:00:27.204Z,28.00
2022-12-23T02:03:12.404Z,28.77
2022-12-23T02:05:43.019Z,25.93
2022-12-23T02:08:28.839Z,26.17
2022-12-23T02:11:16.413Z,27.10
2022-12-23T02:14:12.321Z,26.77
2022-12-23T02:16:48.505Z,28.90
2022-12-23T02:19:23.916Z,28.70
2022-12-23T02:22:23.786Z,25.93
2022-12-23T02:25:27.302Z,27.33
2022-12-23T02:28:14.009Z,25.37
2022-12-23T02:30:47.118Z,26.30
2022-12-23T02:33:41.080Z,31.00
2022-12-23T02:36:21.482Z,29.70
2022-12-23T02:38:59.840Z,31.73
2022-12-23T02:41:36.614Z,29.83
2022-12-23T02:44:11.547Z,30.80
2022-12-23T02:46:47.231Z,31.30
2022-12-23T02:49:21.457Z,31.07
2022-12-23T02:51:54.042Z,30.70
2022-12-23T02:54:27.996Z,30.10
2022-12-23T02:56:57.831Z,30.43
2022-12-23T02:59:29.081Z,30.47
2022-12-23T03:01:59.682Z,29.47
2022-12-23T03:04:27.771Z,31.93
2022-12-23T03:06:57.044Z,30.33
2022-12-23T03:09:35.992Z,27.87
2022-12-23T03:12:11.410Z,30.03
2022-12-23T03:14:57.380Z,29.37
2022-12-23T03:17:43.175Z,33.17
2022-12-23T03:20:22.032Z,29.43
2022-12-23T03:22:55.425Z,29.63
2022-12-23T03:25:27.764Z,29.37
2022-12-23T03:28:03.527Z,28.40
2022-12-23T03:30:34.947Z,29.40
2022-12-23T03:33:08.371Z,31.30
2022-12-23T03:35:41.046Z,30.70
2022-12-23T03:38:11.192Z,30.87
2022-12-23T03:40:42.602Z,30.50
2022-12-23T03:43:14.088Z,27.57
2022-12-23T03:45:49.415Z,26.20
2022-12-23T03:48:23.836Z,27.73
2022-12-23T03:50:56.886Z,28.37
2022-12-23T03:53:31.106Z,30.67
2022-12-23T03:56:04.033Z,31.53
2022-12-23T03:58:37.936Z,27.70
2022-12-23T04:01:13.779Z,30.53
2022-12-23T04:03:53.007Z,28.13
2022-12-23T04:06:22.781Z,27.53
2022-12-23T04:08:51.705Z,26.93
2022-12-23T04:11:19.497Z,29.90
2022-12-23T04:13:49.032Z,29.27
2022-12-23T04:16:17.064Z,28.23
2022-12-23T04:18:46.217Z,28.27
2022-12-23T04:21:13.910Z,26.27
2022-12-23T04:23:41.587Z,29.30
2022-12-23T04:26:09.343Z,28.57
2022-12-23T04:28:37.030Z,28.13
2022-12-23T04:31:05.018Z,29.87
2022-12-23T04:33:32.683Z,30.57
2022-12-23T04:36:02.107Z,30.43
2022-12-23T04:38:29.760Z,26.73
2022-12-23T04:40:57.464Z,27.77
2022-12-23T04:43:25.145Z,29.20
2022-12-23T04:45:53.220Z,29.33
2022-12-23T04:48:20.910Z,31.97
2022-12-23T04:50:48.593Z,32.10
2022-12-23T04:53:17.718Z,30.97
2022-12-23T04:55:45.375Z,30.17
2022-12-23T04:58:13.096Z,31.37
2022-12-23T05:00:40.855Z,29.60
2022-12-23T05:03:08.942Z,33.30
2022-12-23T05:05:36.808Z,29.63
2022-12-23T05:08:05.475Z,29.83
2022-12-23T05:10:34.544Z,30.70
2022-12-23T05:13:02.322Z,32.23
2022-12-23T05:15:33.083Z,31.73
2022-12-23T05:18:00.905Z,31.40
2022-12-23T05:20:28.729Z,31.17
2022-12-23T05:22:56.438Z,29.60
2022-12-23T05:25:24.100Z,31.83
2022-12-23T05:27:53.246Z,32.60
2022-12-23T05:30:21.204Z,30.77
2022-12-23T05:32:48.883Z,30.90
2022-12-23T05:35:16.856Z,34.17
2022-12-23T05:37:44.584Z,33.53
2022-12-23T05:40:15.015Z,32.07
2022-12-23T05:42:47.673Z,29.67
2022-12-23T05:45:16.964Z,31.37
2022-12-23T05:47:44.711Z,31.33
2022-12-23T05:50:12.967Z,33.27
2022-12-23T05:52:40.969Z,30.83
2022-12-23T05:55:10.028Z,31.43
2022-12-23T05:57:37.799Z,31.17
2022-12-23T06:00:06.510Z,31.97
2022-12-23T06:02:35.752Z,32.70
2022-12-23T06:05:03.625Z,31.60
2022-12-23T06:07:31.316Z,31.97
2022-12-23T06:09:59.005Z,31.93
2022-12-23T06:12:26.689Z,31.37
2022-12-23T06:14:54.355Z,31.77
2022-12-23T06:17:22.066Z,33.47
2022-12-23T06:19:51.233Z,30.20
2022-12-23T06:22:21.072Z,32.97
2022-12-23T06:24:49.349Z,30.13
2022-12-23T06:27:17.177Z,30.93
2022-12-23T06:29:45.017Z,31.57
2022-12-23T06:32:13.099Z,30.93
2022-12-23T06:34:40.903Z,30.67
2022-12-23T06:37:09.978Z,30.90
2022-12-23T06:39:37.695Z,33.10
2022-12-23T06:42:05.478Z,34.20
2022-12-23T06:44:33.218Z,32.77
2022-12-23T06:47:00.954Z,31.47
2022-12-23T06:49:28.673Z,28.90
2022-12-23T06:51:56.441Z,29.60
2022-12-23T06:54:25.545Z,27.30
2022-12-23T06:56:53.313Z,28.40
2022-12-23T06:59:20.980Z,26.43
2022-12-23T07:01:48.787Z,25.40
2022-12-23T07:04:16.517Z,27.00
2022-12-23T07:06:44.258Z,25.80
2022-12-23T07:09:12.437Z,25.30
2022-12-23T07:11:41.577Z,24.87
2022-12-23T07:14:09.493Z,27.00
2022-12-23T07:16:37.382Z,36.10
2022-12-23T07:19:05.343Z,27.77
2022-12-23T07:21:34.411Z,29.67
2022-12-23T07:24:02.097Z,25.00
2022-12-23T07:26:29.872Z,23.93
2022-12-23T07:28:59.039Z,26.53
2022-12-23T07:31:26.870Z,26.27
2022-12-23T07:33:54.812Z,25.27
2022-12-23T07:36:22.622Z,23.57
2022-12-23T07:38:51.258Z,26.93
2022-12-23T07:41:19.067Z,23.67
2022-12-23T07:43:46.822Z,26.93
2022-12-23T07:46:15.933Z,25.53
2022-12-23T07:48:43.803Z,23.63
2022-12-23T07:51:11.469Z,24.87
2022-12-23T07:53:39.190Z,23.23
2022-12-23T07:56:07.577Z,23.63
2022-12-23T07:58:35.331Z,24.83
2022-12-23T08:01:04.749Z,20.67
2022-12-23T08:03:33.921Z,24.00
2022-12-23T08:06:03.539Z,20.43
2022-12-23T08:08:31.481Z,23.03
2022-12-23T08:11:00.736Z,19.93
2022-12-23T08:13:28.747Z,20.83
2022-12-23T08:15:57.858Z,23.80
2022-12-23T08:18:26.271Z,21.93
2022-12-23T08:20:59.860Z,22.63
2022-12-23T08:23:29.287Z,28.57
2022-12-23T08:26:01.757Z,33.23
2022-12-23T08:28:30.076Z,27.60
2022-12-23T08:31:05.167Z,46.73
2022-12-23T08:33:33.787Z,48.40
2022-12-23T08:36:02.881Z,33.73
2022-12-23T08:38:30.578Z,33.30
2022-12-23T08:40:58.308Z,55.57
2022-12-23T08:43:31.820Z,38.37
2022-12-23T08:46:03.187Z,30.20
2022-12-23T08:48:31.106Z,26.40
2022-12-23T08:50:58.853Z,29.20
2022-12-23T08:53:27.893Z,32.00
2022-12-23T08:55:55.543Z,30.60
2022-12-23T08:58:23.206Z,25.70
2022-12-23T09:00:50.968Z,25.20
2022-12-23T09:03:18.747Z,25.33
2022-12-23T09:05:46.481Z,23.93
2022-12-23T09:08:14.420Z,24.47
2022-12-23T09:10:44.465Z,24.53
2022-12-23T09:13:17.938Z,26.57
2022-12-23T09:15:50.446Z,24.30
2022-12-23T09:18:18.206Z,24.60
2022-12-23T09:20:46.063Z,21.83
2022-12-23T09:23:13.865Z,22.93
2022-12-23T09:25:41.992Z,20.83
2022-12-23T09:28:13.103Z,20.83
2022-12-23T09:30:40.905Z,20.67
2022-12-23T09:33:09.229Z,27.80
2022-12-23T09:35:37.028Z,26.03
2022-12-23T09:38:07.100Z,24.87
2022-12-23T09:40:37.966Z,22.83
2022-12-23T09:43:16.969Z,20.43
2022-12-23T09:45:56.819Z,21.30
2022-12-23T09:48:27.749Z,18.00
2022-12-23T09:50:56.720Z,18.03
2022-12-23T09:53:29.048Z,18.17
2022-12-23T09:56:03.364Z,18.17
2022-12-23T09:58:44.730Z,17.10
2022-12-23T10:01:20.245Z,16.70
2022-12-23T10:04:05.431Z,17.20
2022-12-23T10:06:35.569Z,17.63
2022-12-23T10:09:07.970Z,15.73
2022-12-23T10:11:39.073Z,17.40
2022-12-23T10:14:15.853Z,16.87
2022-12-23T10:16:46.718Z,15.23
2022-12-23T10:19:19.107Z,18.27
2022-12-23T10:21:49.915Z,16.77
2022-12-23T10:24:22.918Z,15.90
2022-12-23T10:26:54.421Z,16.47
2022-12-23T10:29:25.677Z,15.60
2022-12-23T10:32:07.067Z,17.77
2022-12-23T10:34:46.139Z,17.10
2022-12-23T10:37:22.263Z,16.27
2022-12-23T10:40:01.319Z,18.23
2022-12-23T10:42:35.567Z,18.43
2022-12-23T10:45:40.140Z,20.90
2022-12-23T10:48:23.053Z,20.63
2022-12-23T10:50:59.744Z,19.77
2022-12-23T10:53:37.418Z,19.73
2022-12-23T10:56:06.627Z,20.43
2022-12-23T10:58:38.074Z,19.77
2022-12-23T11:01:16.127Z,21.50
2022-12-23T11:04:00.590Z,32.13
2022-12-23T11:06:34.843Z,27.70
2022-12-23T11:09:06.323Z,32.17
2022-12-23T11:11:57.562Z,32.00
2022-12-23T11:14:34.419Z,25.30
2022-12-23T11:17:04.447Z,36.17
2022-12-23T11:19:32.652Z,29.70
2022-12-23T11:22:02.318Z,26.00
2022-12-23T11:24:35.445Z,25.30
2022-12-23T11:27:08.275Z,21.70
2022-12-23T11:29:38.500Z,24.13
2022-12-23T11:32:18.109Z,20.03
2022-12-23T11:34:47.444Z,21.57
2022-12-23T11:37:26.865Z,17.97
2022-12-23T11:39:54.912Z,17.70
2022-12-23T11:42:28.446Z,16.27
2022-12-23T11:44:59.732Z,21.30
2022-12-23T11:47:34.024Z,26.47
2022-12-23T11:50:05.342Z,21.10
2022-12-23T11:52:34.305Z,22.07
2022-12-23T11:55:03.768Z,21.30
2022-12-23T11:57:39.553Z,34.43
2022-12-23T12:00:18.670Z,26.00
2022-12-23T12:02:50.113Z,34.03
2022-12-23T12:05:22.976Z,20.30
2022-12-23T12:07:52.712Z,20.43
2022-12-23T12:10:23.518Z,18.47
2022-12-23T12:12:55.194Z,16.83
2022-12-23T12:15:32.244Z,18.90
2022-12-23T12:18:04.416Z,17.43
2022-12-23T12:20:36.853Z,17.97
2022-12-23T12:23:10.047Z,17.17
2022-12-23T12:25:43.217Z,16.13
2022-12-23T12:28:15.589Z,19.00
2022-12-23T12:30:50.208Z,19.57
2022-12-23T12:33:25.158Z,17.40
2022-12-23T12:36:04.933Z,18.07
2022-12-23T12:38:35.328Z,15.30
2022-12-23T12:41:12.001Z,15.00
2022-12-23T12:43:44.613Z,16.40
2022-12-23T12:46:31.745Z,16.57
2022-12-23T12:49:06.490Z,17.10
2022-12-23T12:51:41.908Z,17.23
2022-12-23T12:54:20.903Z,16.03
2022-12-23T12:56:51.304Z,17.03
2022-12-23T12:59:23.691Z,16.27
2022-12-23T13:02:06.343Z,16.07
2022-12-23T13:05:20.779Z,14.03
2022-12-23T13:08:01.977Z,15.63
2022-12-23T13:10:40.540Z,14.77
2022-12-23T13:13:23.915Z,14.80
2022-12-23T13:15:59.033Z,14.93
2022-12-23T13:18:36.742Z,15.90
2022-12-23T13:21:13.378Z,18.50
2022-12-23T13:23:48.808Z,43.43
2022-12-23T13:26:27.446Z,25.00
2022-12-23T13:29:06.207Z,16.57
2022-12-23T13:31:48.612Z,16.53
2022-12-23T13:34:33.303Z,15.53
2022-12-23T13:37:17.080Z,15.90
2022-12-23T13:39:57.414Z,17.37
2022-12-23T13:42:31.525Z,15.53
2022-12-23T13:45:00.471Z,15.07
2022-12-23T13:47:45.621Z,15.67
2022-12-23T13:50:20.160Z,15.43
2022-12-23T13:53:08.942Z,15.87
2022-12-23T13:55:52.935Z,15.40
2022-12-23T13:58:22.971Z,14.77
2022-12-23T14:00:58.821Z,13.77
2022-12-23T14:03:33.638Z,13.67
2022-12-23T14:06:20.990Z,15.57
2022-12-23T14:08:51.832Z,14.40
2022-12-23T14:11:25.183Z,14.00
2022-12-23T14:13:58.296Z,14.17
2022-12-23T14:16:39.299Z,13.80
2022-12-23T14:19:31.956Z,13.93
2022-12-23T14:22:12.412Z,15.40
2022-12-23T14:25:17.635Z,14.37
2022-12-23T14:27:57.731Z,15.90
2022-12-23T14:30:35.820Z,14.93
2022-12-23T14:33:06.238Z,14.53
2022-12-23T14:35:54.095Z,15.63
2022-12-23T14:38:27.739Z,15.30
2022-12-23T14:41:37.775Z,15.47
2022-12-23T14:44:21.058Z,15.60
2022-12-23T14:46:59.065Z,16.27
2022-12-23T14:49:47.977Z,17.17
2022-12-23T14:52:44.487Z,16.60
2022-12-23T14:55:45.203Z,17.30
2022-12-23T14:58:51.459Z,17.73
2022-12-23T15:01:22.610Z,17.37
2022-12-23T15:03:57.595Z,18.90
2022-12-23T15:06:34.065Z,16.97
2022-12-23T15:09:03.597Z,16.20
2022-12-23T15:11:34.096Z,17.67
2022-12-23T15:14:09.658Z,17.93
2022-12-23T15:16:39.753Z,18.57
2022-12-23T15:19:22.798Z,17.30
2022-12-23T15:22:00.331Z,17.90
2022-12-23T15:24:33.518Z,17.63
2022-12-23T15:27:25.908Z,15.53
2022-12-23T15:29:54.423Z,18.00
2022-12-23T15:32:25.605Z,17.07
2022-12-23T15:34:55.759Z,18.43
2022-12-23T15:37:27.597Z,18.07
2022-12-23T15:40:03.348Z,18.73
2022-12-23T15:42:38.548Z,17.23
2022-12-23T15:45:30.866Z,17.63
2022-12-23T15:47:58.745Z,17.47
2022-12-23T15:50:26.962Z,20.53
2022-12-23T15:52:57.319Z,18.87
2022-12-23T15:55:29.151Z,18.60
2022-12-23T15:57:57.925Z,19.90
2022-12-23T16:00:30.334Z,18.80
2022-12-23T16:03:01.019Z,18.30
2022-12-23T16:05:32.147Z,18.83
2022-12-23T16:08:28.930Z,19.17
2022-12-23T16:11:04.309Z,18.47
2022-12-23T16:13:32.378Z,19.27
2022-12-23T16:16:19.911Z,18.17
2022-12-23T16:18:48.198Z,18.07
2022-12-23T16:21:16.573Z,17.70
2022-12-23T16:23:51.524Z,20.60
2022-12-23T16:26:20.164Z,21.23
2022-12-23T16:28:51.346Z,19.70
2022-12-23T16:31:21.850Z,20.77
2022-12-23T16:33:51.575Z,21.33
2022-12-23T16:36:23.639Z,20.73
2022-12-23T16:38:53.261Z,22.30
2022-12-23T16:41:21.516Z,20.53
2022-12-23T16:43:52.501Z,20.63
2022-12-23T16:46:23.476Z,20.50
2022-12-23T16:48:53.433Z,20.27
2022-12-23T16:51:24.538Z,20.50
2022-12-23T16:53:55.327Z,19.87
2022-12-23T16:56:25.364Z,20.43
2022-12-23T16:58:53.398Z,20.43
2022-12-23T17:01:25.353Z,22.13
2022-12-23T17:03:53.716Z,21.90
2022-12-23T17:06:22.066Z,20.73
2022-12-23T17:08:50.003Z,21.20
2022-12-23T17:11:19.839Z,22.90
2022-12-23T17:13:48.355Z,22.80
2022-12-23T17:16:19.937Z,21.93
2022-12-23T17:18:49.556Z,22.50
2022-12-23T17:21:21.950Z,24.00
2022-12-23T17:23:50.432Z,22.93
2022-12-23T17:26:18.261Z,22.70
2022-12-23T17:28:46.723Z,21.60
2022-12-23T17:31:18.099Z,18.90
2022-12-23T17:33:50.319Z,19.03
2022-12-23T17:36:18.500Z,20.10
2022-12-23T17:38:46.305Z,19.17
2022-12-23T17:41:28.075Z,21.83
2022-12-23T17:43:56.501Z,20.17
2022-12-23T17:46:24.833Z,19.50
2022-12-23T17:48:54.570Z,21.93
2022-12-23T17:51:24.207Z,20.23
2022-12-23T17:53:57.739Z,21.70
2022-12-23T17:56:28.772Z,24.80
2022-12-23T17:58:56.596Z,22.40
2022-12-23T18:01:26.986Z,21.40
2022-12-23T18:03:57.843Z,22.23
2022-12-23T18:06:27.517Z,23.03
2022-12-23T18:08:56.958Z,22.50
2022-12-23T18:11:31.109Z,22.53
2022-12-23T18:13:58.949Z,22.83
2022-12-23T18:16:26.812Z,20.47
2022-12-23T18:18:56.073Z,22.13
2022-12-23T18:21:25.948Z,22.40
2022-12-23T18:23:55.801Z,21.47
2022-12-23T18:26:23.669Z,22.63
2022-12-23T18:28:52.727Z,22.37
2022-12-23T18:31:23.162Z,20.97
2022-12-23T18:33:51.710Z,22.70
2022-12-23T18:36:24.984Z,21.53
2022-12-23T18:38:53.387Z,22.03
2022-12-23T18:41:21.732Z,21.70
2022-12-23T18:43:49.515Z,21.60
2022-12-23T18:46:17.470Z,22.93
2022-12-23T18:48:45.231Z,23.23
2022-12-23T18:51:15.152Z,20.93
2022-12-23T18:53:44.559Z,28.67
2022-12-23T18:56:13.996Z,30.27
2022-12-23T18:58:41.789Z,23.47
2022-12-23T19:01:12.631Z,22.23
2022-12-23T19:03:40.551Z,20.07
2022-12-23T19:06:09.670Z,19.77
2022-12-23T19:08:38.595Z,19.23
2022-12-23T19:11:12.641Z,18.70
2022-12-23T19:13:40.475Z,19.63
2022-12-23T19:16:08.564Z,20.07
2022-12-23T19:18:36.327Z,20.10
2022-12-23T19:21:05.365Z,18.50
2022-12-23T19:23:33.207Z,18.27
2022-12-23T19:26:01.123Z,17.20
2022-12-23T19:28:30.255Z,18.07
2022-12-23T19:30:58.126Z,17.23
2022-12-23T19:33:25.989Z,19.37
2022-12-23T19:35:53.747Z,17.97
2022-12-23T19:38:21.541Z,18.70
2022-12-23T19:40:58.357Z,18.63
2022-12-23T19:43:26.221Z,21.20
2022-12-23T19:45:59.891Z,19.10
2022-12-23T19:48:28.194Z,18.63
2022-12-23T19:50:59.306Z,17.57
2022-12-23T19:53:27.885Z,17.43
2022-12-23T19:56:00.127Z,17.90
2022-12-23T19:58:28.187Z,18.17
2022-12-23T20:01:08.264Z,18.67
2022-12-23T20:03:36.621Z,18.43
2022-12-23T20:06:06.465Z,18.23
2022-12-23T20:08:34.961Z,18.30
2022-12-23T20:11:07.567Z,18.20
2022-12-23T20:13:36.035Z,17.40
2022-12-23T20:16:04.699Z,16.73
2022-12-23T20:18:33.999Z,16.50
2022-12-23T20:21:02.459Z,16.03
2022-12-23T20:23:33.376Z,16.13
2022-12-23T20:26:01.105Z,17.10
2022-12-23T20:28:29.339Z,16.50
2022-12-23T20:31:02.374Z,16.77
2022-12-23T20:33:30.198Z,15.53
2022-12-23T20:35:59.356Z,15.70
2022-12-23T20:38:27.150Z,16.13
2022-12-23T20:40:54.944Z,15.53
2022-12-23T20:43:22.712Z,15.93
2022-12-23T20:45:52.058Z,15.77
2022-12-23T20:48:21.711Z,14.93
2022-12-23T20:50:49.710Z,16.23
2022-12-23T20:53:18.808Z,15.73
2022-12-23T20:55:46.495Z,16.67
2022-12-23T20:58:31.910Z,17.10
2022-12-23T21:01:09.199Z,19.07
2022-12-23T21:03:37.319Z,18.77
2022-12-23T21:06:05.611Z,19.13
2022-12-23T21:08:35.481Z,19.30
2022-12-23T21:11:03.598Z,19.50
2022-12-23T21:13:31.628Z,19.00
2022-12-23T21:16:01.915Z,17.13
2022-12-23T21:18:31.104Z,19.13
2022-12-23T21:21:00.896Z,20.67
2022-12-23T21:23:29.374Z,18.67
2022-12-23T21:26:13.890Z,18.40
2022-12-23T21:28:43.024Z,18.97
2022-12-23T21:31:11.206Z,17.93
2022-12-23T21:33:40.316Z,16.47
2022-12-23T21:36:09.293Z,16.30
2022-12-23T21:38:38.767Z,18.33
2022-12-23T21:41:10.098Z,17.00
2022-12-23T21:43:39.240Z,17.37
2022-12-23T21:46:08.875Z,17.10
2022-12-23T21:48:38.259Z,17.03
2022-12-23T21:51:08.124Z,15.97
2022-12-23T21:53:36.218Z,16.43
2022-12-23T21:56:05.614Z,15.63
2022-12-23T21:58:34.397Z,17.43
2022-12-23T22:01:07.728Z,16.00
2022-12-23T22:03:35.634Z,16.13
2022-12-23T22:06:10.363Z,14.47
2022-12-23T22:08:38.671Z,14.53
2022-12-23T22:11:08.381Z,15.17
2022-12-23T22:13:36.866Z,15.30
2022-12-23T22:16:10.511Z,13.53
2022-12-23T22:18:38.782Z,13.13
2022-12-23T22:21:07.151Z,15.53
2022-12-23T22:23:34.920Z,13.97
2022-12-23T22:26:02.669Z,14.43
2022-12-23T22:28:32.160Z,13.37
2022-12-23T22:31:03.280Z,13.67
2022-12-23T22:33:32.605Z,13.67
2022-12-23T22:36:00.586Z,13.50
2022-12-23T22:38:28.347Z,14.10
2022-12-23T22:40:56.076Z,14.17
2022-12-23T22:43:24.035Z,13.83
2022-12-23T22:45:57.017Z,13.93
2022-12-23T22:48:25.028Z,12.33
2022-12-23T22:51:02.896Z,14.27
2022-12-23T22:53:30.952Z,13.93
2022-12-23T22:55:59.500Z,13.67
2022-12-23T22:58:27.938Z,15.50
2022-12-23T23:00:56.018Z,12.80
2022-12-23T23:03:24.179Z,14.40
2022-12-23T23:06:02.341Z,13.83
2022-12-23T23:08:30.970Z,12.73
2022-12-23T23:10:59.796Z,13.53
2022-12-23T23:13:30.586Z,13.43
2022-12-23T23:15:59.663Z,13.33
2022-12-23T23:18:28.323Z,12.13
2022-12-23T23:20:56.565Z,14.87
2022-12-23T23:23:25.702Z,13.67
2022-12-23T23:25:53.522Z,14.23
2022-12-23T23:28:21.243Z,14.57
2022-12-23T23:30:52.739Z,14.40
2022-12-23T23:33:31.500Z,16.30
2022-12-23T23:36:00.255Z,13.67
2022-12-23T23:38:29.346Z,15.13
2022-12-23T23:40:58.536Z,15.13
2022-12-23T23:43:26.522Z,15.63
2022-12-23T23:45:54.445Z,15.60
2022-12-23T23:48:22.555Z,15.37
2022-12-23T23:50:50.297Z,16.40
2022-12-23T23:53:18.996Z,14.60
2022-12-23T23:55:48.065Z,15.57
2022-12-23T23:58:15.757Z,16.13
